Time,TemperatureF,DewpointF,PressureIn,WindDirection,WindDirectionDegrees,WindSpeedMPH,WindSpeedGustMPH,Humidity,HourlyPrecipIn,Conditions,Clouds,dailyrainin,SolarRadiationWatts/m^2,SoftwareType,DateUTC
2013-01-05 00:00:00,38.9,23.7,30.25,SW,215,1.0,10.0,54,0.00,,CLR,0.00,0.00,VWS V14.01,2013-01-05 05:00:00,
2013-01-05 00:01:00,38.8,22.7,30.25,SSW,211,0.0,10.0,52,0.00,,CLR,0.00,0.00,VWS V14.01,2013-01-05 05:01:00,
2013-01-05 00:06:00,38.6,22.5,30.25,SW,218,0.0,4.0,52,0.00,,CLR,0.00,0.00,VWS V14.01,2013-01-05 05:06:00,
2013-01-05 00:11:00,38.5,22.4,30.25,SSW,207,1.0,4.0,52,0.00,,CLR,0.00,0.00,VWS V14.01,2013-01-05 05:11:00,
2013-01-05 00:16:00,38.2,26.7,30.25,West,277,5.0,10.0,63,0.00,,CLR,0.00,0.00,VWS V14.01,2013-01-05 05:16:00,
2013-01-05 00:21:00,37.8,23.5,30.25,SW,217,0.0,10.0,56,0.00,,CLR,0.00,0.00,VWS V14.01,2013-01-05 05:21:00,
2013-01-05 00:26:00,37.5,23.2,30.25,SSW,209,0.0,10.0,56,0.00,,CLR,0.00,0.00,VWS V14.01,2013-01-05 05:26:00,
2013-01-05 00:30:00,39.3,27.4,30.23,NNW,335,6.0,10.0,62,0.00,,CLR,0.00,0.00,VWS V14.01,2013-01-05 05:30:00,
2013-01-05 00:31:00,37.5,26.5,30.24,West,261,2.0,10.0,64,0.00,,CLR,0.00,0.00,VWS V14.01,2013-01-05 05:31:00,
2013-01-05 00:36:00,37.3,23.9,30.24,WSW,237,1.0,3.0,58,0.00,,CLR,0.00,0.00,VWS V14.01,2013-01-05 05:36:00,
2013-01-05 00:41:00,37.3,27.4,30.24,West,268,5.0,7.0,67,0.00,,CLR,0.00,0.00,VWS V14.01,2013-01-05 05:41:00,
2013-01-05 00:46:00,37.0,26.3,30.25,West,259,3.0,7.0,65,0.00,,CLR,0.00,0.00,VWS V14.01,2013-01-05 05:46:00,
2013-01-05 00:51:00,36.9,24.7,30.25,WSW,250,2.0,7.0,61,0.00,,CLR,0.00,0.00,VWS V14.01,2013-01-05 05:51:00,
2013-01-05 00:56:00,37.3,25.1,30.25,SW,231,0.0,7.0,61,0.00,,CLR,0.00,0.00,VWS V14.01,2013-01-05 05:56:00,
2013-01-05 01:00:00,39.2,26.5,30.23,NW,318,5.0,10.0,60,0.00,,CLR,0.00,0.00,VWS V14.01,2013-01-05 06:00:00,
2013-01-05 01:01:00,37.5,23.7,30.24,SW,217,2.0,7.0,57,0.00,,CLR,0.00,0.00,VWS V14.01,2013-01-05 06:01:00,
2013-01-05 01:06:00,37.8,25.6,30.24,West,265,1.0,5.0,61,0.00,,CLR,0.00,0.00,VWS V14.01,2013-01-05 06:06:00,
2013-01-05 01:11:00,38.0,25.4,30.24,WNW,295,6.0,10.0,60,0.00,,CLR,0.00,0.00,VWS V14.01,2013-01-05 06:11:00,
2013-01-05 01:16:00,38.0,25.0,30.24,WNW,298,6.0,10.0,59,0.00,,CLR,0.00,0.00,VWS V14.01,2013-01-05 06:16:00,
2013-01-05 01:21:00,38.6,24.3,30.24,NW,324,4.0,10.0,56,0.00,,CLR,0.00,0.00,VWS V14.01,2013-01-05 06:21:00,
2013-01-05 01:26:00,39.1,23.9,30.24,NW,321,4.0,10.0,54,0.00,,CLR,0.00,0.00,VWS V14.01,2013-01-05 06:26:00,
2013-01-05 01:30:00,39.3,27.8,30.23,WNW,295,5.0,10.0,63,0.00,,CLR,0.00,0.00,VWS V14.01,2013-01-05 06:30:00,
2013-01-05 01:31:00,39.3,27.4,30.23,North,349,8.0,10.0,62,0.00,,CLR,0.00,0.00,VWS V14.01,2013-01-05 06:31:00,
2013-01-05 01:36:00,39.3,25.4,30.23,WNW,299,4.0,10.0,57,0.00,,CLR,0.00,0.00,VWS V14.01,2013-01-05 06:36:00,
2013-01-05 01:41:00,39.2,26.5,30.23,NW,317,5.0,10.0,60,0.00,,CLR,0.00,0.00,VWS V14.01,2013-01-05 06:41:00,
2013-01-05 01:46:00,39.2,27.7,30.23,NNW,337,6.0,10.0,63,0.00,,CLR,0.00,0.00,VWS V14.01,2013-01-05 06:46:00,
2013-01-05 01:51:00,39.3,27.0,30.23,WNW,300,5.0,10.0,61,0.00,,CLR,0.00,0.00,VWS V14.01,2013-01-05 06:51:00,
2013-01-05 01:56:00,39.1,27.2,30.23,NNW,346,3.0,10.0,62,0.00,,CLR,0.00,0.00,VWS V14.01,2013-01-05 06:56:00,
2013-01-05 02:00:00,37.6,28.0,30.23,NW,317,3.0,10.0,68,0.00,,CLR,0.00,0.00,VWS V14.01,2013-01-05 07:00:00,
2013-01-05 02:01:00,39.2,26.9,30.23,NW,317,4.0,10.0,61,0.00,,CLR,0.00,0.00,VWS V14.01,2013-01-05 07:01:00,
2013-01-05 02:06:00,39.1,26.4,30.23,NW,311,3.0,6.0,60,0.00,,CLR,0.00,0.00,VWS V14.01,2013-01-05 07:06:00,
2013-01-05 02:11:00,39.1,27.6,30.23,NW,326,4.0,9.0,63,0.00,,CLR,0.00,0.00,VWS V14.01,2013-01-05 07:11:00,
2013-01-05 02:16:00,39.1,28.0,30.23,NNW,327,3.0,9.0,64,0.00,,CLR,0.00,0.00,VWS V14.01,2013-01-05 07:16:00,
2013-01-05 02:21:00,39.2,29.2,30.23,NNW,336,8.0,10.0,67,0.00,,CLR,0.00,0.00,VWS V14.01,2013-01-05 07:21:00,
2013-01-05 02:26:00,39.5,28.7,30.23,WNW,299,6.0,10.0,65,0.00,,CLR,0.00,0.00,VWS V14.01,2013-01-05 07:26:00,
2013-01-05 02:30:00,38.5,26.6,30.24,NNW,328,2.0,6.0,62,0.00,,CLR,0.00,0.00,VWS V14.01,2013-01-05 07:30:00,
2013-01-05 02:31:00,39.5,27.6,30.23,NNW,333,7.0,10.0,62,0.00,,CLR,0.00,0.00,VWS V14.01,2013-01-05 07:31:00,
2013-01-05 02:36:00,39.3,27.0,30.23,WNW,302,6.0,10.0,61,0.00,,CLR,0.00,0.00,VWS V14.01,2013-01-05 07:36:00,
2013-01-05 02:41:00,39.3,26.6,30.23,NW,312,4.0,10.0,60,0.00,,CLR,0.00,0.00,VWS V14.01,2013-01-05 07:41:00,
2013-01-05 02:46:00,39.1,27.6,30.23,WNW,291,3.0,10.0,63,0.00,,CLR,0.00,0.00,VWS V14.01,2013-01-05 07:46:00,
2013-01-05 02:51:00,38.5,29.2,30.23,West,265,3.0,10.0,69,0.00,,CLR,0.00,0.00,VWS V14.01,2013-01-05 07:51:00,
2013-01-05 02:56:00,37.9,27.2,30.23,WNW,289,4.0,10.0,65,0.00,,CLR,0.00,0.00,VWS V14.01,2013-01-05 07:56:00,
2013-01-05 03:00:00,39.3,28.9,30.22,North,360,5.0,9.0,66,0.00,,CLR,0.00,0.00,VWS V14.01,2013-01-05 08:00:00,
2013-01-05 03:01:00,37.6,26.5,30.23,NW,317,4.0,10.0,64,0.00,,CLR,0.00,0.00,VWS V14.01,2013-01-05 08:01:00,
2013-01-05 03:06:00,37.9,27.9,30.23,NW,305,4.0,6.0,67,0.00,,CLR,0.00,0.00,VWS V14.01,2013-01-05 08:06:00,
2013-01-05 03:11:00,37.9,27.2,30.23,WNW,303,5.0,6.0,65,0.00,,CLR,0.00,0.00,VWS V14.01,2013-01-05 08:11:00,
2013-01-05 03:16:00,38.0,25.8,30.24,NNW,348,3.0,6.0,61,0.00,,CLR,0.00,0.00,VWS V14.01,2013-01-05 08:16:00,
2013-01-05 03:21:00,38.2,26.7,30.24,NW,311,3.0,6.0,63,0.00,,CLR,0.00,0.00,VWS V14.01,2013-01-05 08:21:00,
2013-01-05 03:26:00,38.3,27.2,30.24,NNW,333,4.0,6.0,64,0.00,,CLR,0.00,0.00,VWS V14.01,2013-01-05 08:26:00,
2013-01-05 03:30:00,38.6,29.3,30.22,SSW,210,0.0,9.0,69,0.00,,CLR,0.00,0.00,VWS V14.01,2013-01-05 08:30:00,
2013-01-05 03:31:00,38.3,26.4,30.24,WNW,299,3.0,6.0,62,0.00,,CLR,0.00,0.00,VWS V14.01,2013-01-05 08:31:00,
2013-01-05 03:36:00,38.6,27.9,30.24,West,279,4.0,8.0,65,0.00,,CLR,0.00,0.00,VWS V14.01,2013-01-05 08:36:00,
2013-01-05 03:41:00,38.3,27.2,30.24,WNW,301,1.0,8.0,64,0.00,,CLR,0.00,0.00,VWS V14.01,2013-01-05 08:41:00,
2013-01-05 03:46:00,38.5,27.0,30.23,NNE,17,0.0,8.0,63,0.00,,CLR,0.00,0.00,VWS V14.01,2013-01-05 08:46:00,
2013-01-05 03:51:00,39.1,29.1,30.23,North,360,5.0,8.0,67,0.00,,CLR,0.00,0.00,VWS V14.01,2013-01-05 08:51:00,
2013-01-05 03:56:00,39.3,29.6,30.23,North,360,5.0,9.0,68,0.00,,CLR,0.00,0.00,VWS V14.01,2013-01-05 08:56:00,
2013-01-05 04:00:00,35.8,25.9,30.22,SW,230,1.0,6.0,67,0.00,,CLR,0.00,0.00,VWS V14.01,2013-01-05 09:00:00,
2013-01-05 04:01:00,39.3,29.3,30.22,North,360,2.0,9.0,67,0.00,,CLR,0.00,0.00,VWS V14.01,2013-01-05 09:01:00,
2013-01-05 04:06:00,39.5,29.1,30.22,North,360,5.0,7.0,66,0.00,,CLR,0.00,0.00,VWS V14.01,2013-01-05 09:06:00,
2013-01-05 04:11:00,39.5,30.9,30.22,WNW,292,1.0,8.0,71,0.00,,CLR,0.00,0.00,VWS V14.01,2013-01-05 09:11:00,
2013-01-05 04:16:00,39.1,29.8,30.21,NE,37,6.0,9.0,69,0.00,,CLR,0.00,0.00,VWS V14.01,2013-01-05 09:16:00,
2013-01-05 04:21:00,39.2,30.2,30.21,NNE,14,1.0,9.0,70,0.00,,CLR,0.00,0.00,VWS V14.01,2013-01-05 09:21:00,
2013-01-05 04:26:00,39.3,31.7,30.21,NW,323,0.0,9.0,74,0.00,,CLR,0.00,0.00,VWS V14.01,2013-01-05 09:26:00,
2013-01-05 04:30:00,34.9,27.5,30.24,SW,224,0.0,3.0,74,0.00,,CLR,0.00,0.00,VWS V14.01,2013-01-05 09:30:00,
2013-01-05 04:31:00,38.8,29.9,30.22,SW,216,0.0,9.0,70,0.00,,CLR,0.00,0.00,VWS V14.01,2013-01-05 09:31:00,
2013-01-05 04:36:00,38.2,30.0,30.22,WNW,284,3.0,6.0,72,0.00,,CLR,0.00,0.00,VWS V14.01,2013-01-05 09:36:00,
2013-01-05 04:41:00,37.9,29.0,30.22,SW,221,0.0,6.0,70,0.00,,CLR,0.00,0.00,VWS V14.01,2013-01-05 09:41:00,
2013-01-05 04:46:00,37.5,27.2,30.22,SSW,213,0.0,6.0,66,0.00,,CLR,0.00,0.00,VWS V14.01,2013-01-05 09:46:00,
2013-01-05 04:51:00,37.2,26.5,30.22,SW,225,1.0,6.0,65,0.00,,CLR,0.00,0.00,VWS V14.01,2013-01-05 09:51:00,
2013-01-05 04:56:00,36.6,27.4,30.22,WSW,242,1.0,6.0,69,0.00,,CLR,0.00,0.00,VWS V14.01,2013-01-05 09:56:00,
2013-01-05 05:00:00,33.7,27.0,30.25,WSW,254,0.0,4.0,76,0.00,,CLR,0.00,0.00,VWS V14.01,2013-01-05 10:00:00,
2013-01-05 05:01:00,35.9,26.7,30.22,SW,229,0.0,6.0,69,0.00,,CLR,0.00,0.00,VWS V14.01,2013-01-05 10:01:00,
2013-01-05 05:06:00,35.5,24.2,30.22,SW,227,0.0,2.0,63,0.00,,CLR,0.00,0.00,VWS V14.01,2013-01-05 10:06:00,
2013-01-05 05:11:00,35.5,26.0,30.22,SW,224,0.0,2.0,68,0.00,,CLR,0.00,0.00,VWS V14.01,2013-01-05 10:11:00,
2013-01-05 05:16:00,35.3,26.2,30.24,SW,224,0.0,3.0,69,0.00,,CLR,0.00,0.00,VWS V14.01,2013-01-05 10:16:00,
2013-01-05 05:21:00,34.9,25.8,30.24,SW,224,0.0,3.0,69,0.00,,CLR,0.00,0.00,VWS V14.01,2013-01-05 10:21:00,
2013-01-05 05:26:00,34.9,25.1,30.24,SW,224,0.0,3.0,67,0.00,,CLR,0.00,0.00,VWS V14.01,2013-01-05 10:26:00,
2013-01-05 05:30:00,33.1,26.0,30.26,WSW,254,0.0,0.0,75,0.00,,CLR,0.00,0.00,VWS V14.01,2013-01-05 10:30:00,
2013-01-05 05:31:00,34.9,27.1,30.24,SW,224,0.0,3.0,73,0.00,,CLR,0.00,0.00,VWS V14.01,2013-01-05 10:31:00,
2013-01-05 05:36:00,34.7,28.5,30.24,SW,224,0.0,0.0,78,0.00,,CLR,0.00,0.00,VWS V14.01,2013-01-05 10:36:00,
2013-01-05 05:41:00,34.3,28.2,30.24,SW,224,0.0,2.0,78,0.00,,CLR,0.00,0.00,VWS V14.01,2013-01-05 10:41:00,
2013-01-05 05:46:00,34.1,28.0,30.25,SW,224,0.0,2.0,78,0.00,,CLR,0.00,0.00,VWS V14.01,2013-01-05 10:46:00,
2013-01-05 05:51:00,34.0,26.9,30.25,WSW,253,0.0,4.0,75,0.00,,CLR,0.00,0.00,VWS V14.01,2013-01-05 10:51:00,
2013-01-05 05:56:00,33.8,26.4,30.25,WSW,254,0.0,4.0,74,0.00,,CLR,0.00,0.00,VWS V14.01,2013-01-05 10:56:00,
2013-01-05 06:00:00,32.8,26.7,30.28,WSW,254,0.0,4.0,78,0.00,,CLR,0.00,0.00,VWS V14.01,2013-01-05 11:00:00,
2013-01-05 06:01:00,33.7,26.6,30.25,WSW,254,0.0,4.0,75,0.00,,CLR,0.00,0.00,VWS V14.01,2013-01-05 11:01:00,
2013-01-05 06:06:00,33.5,25.8,30.25,WSW,254,0.0,0.0,73,0.00,,CLR,0.00,0.00,VWS V14.01,2013-01-05 11:06:00,
2013-01-05 06:11:00,33.2,25.8,30.25,WSW,254,0.0,0.0,74,0.00,,CLR,0.00,0.00,VWS V14.01,2013-01-05 11:11:00,
2013-01-05 06:16:00,33.1,26.0,30.26,WSW,254,0.0,0.0,75,0.00,,CLR,0.00,0.00,VWS V14.01,2013-01-05 11:16:00,
2013-01-05 06:21:00,32.9,26.2,30.26,WSW,254,0.0,0.0,76,0.00,,CLR,0.00,0.00,VWS V14.01,2013-01-05 11:21:00,
2013-01-05 06:26:00,32.9,26.8,30.26,WSW,254,0.0,0.0,78,0.00,,CLR,0.00,0.00,VWS V14.01,2013-01-05 11:26:00,
2013-01-05 06:30:00,32.7,26.9,30.29,SSW,212,0.0,1.0,79,0.00,,CLR,0.00,5.00,VWS V14.01,2013-01-05 11:30:00,
2013-01-05 06:31:00,33.1,26.4,30.26,WSW,254,0.0,0.0,76,0.00,,CLR,0.00,0.00,VWS V14.01,2013-01-05 11:31:00,
2013-01-05 06:36:00,33.1,25.4,30.26,WSW,254,0.0,0.0,73,0.00,,CLR,0.00,0.00,VWS V14.01,2013-01-05 11:36:00,
2013-01-05 06:41:00,33.1,25.4,30.26,WSW,254,0.0,1.0,73,0.00,,CLR,0.00,0.00,VWS V14.01,2013-01-05 11:41:00,
2013-01-05 06:46:00,33.4,26.0,30.27,WSW,254,0.0,3.0,74,0.00,,CLR,0.00,0.00,VWS V14.01,2013-01-05 11:46:00,
2013-01-05 06:51:00,33.1,27.0,30.27,WSW,254,2.0,4.0,78,0.00,,CLR,0.00,0.00,VWS V14.01,2013-01-05 11:51:00,
2013-01-05 06:56:00,32.8,25.8,30.27,WSW,254,0.0,4.0,75,0.00,,CLR,0.00,0.00,VWS V14.01,2013-01-05 11:56:00,
2013-01-05 07:00:00,32.7,28.4,30.30,SW,224,0.0,4.0,84,0.00,,CLR,0.00,26.00,VWS V14.01,2013-01-05 12:00:00,
2013-01-05 07:01:00,32.8,26.4,30.27,WSW,254,0.0,4.0,77,0.00,,CLR,0.00,0.00,VWS V14.01,2013-01-05 12:01:00,
2013-01-05 07:06:00,32.9,26.8,30.28,WSW,254,0.0,0.0,78,0.00,,CLR,0.00,0.00,VWS V14.01,2013-01-05 12:06:00,
2013-01-05 07:11:00,32.9,27.4,30.28,WSW,242,0.0,0.0,80,0.00,,CLR,0.00,0.00,VWS V14.01,2013-01-05 12:11:00,
2013-01-05 07:16:00,32.9,28.0,30.28,SSW,210,0.0,1.0,82,0.00,,CLR,0.00,0.00,VWS V14.01,2013-01-05 12:16:00,
2013-01-05 07:21:00,32.9,27.1,30.28,SSW,211,0.0,1.0,79,0.00,,CLR,0.00,0.00,VWS V14.01,2013-01-05 12:21:00,
2013-01-05 07:26:00,32.7,26.9,30.28,SSW,211,0.0,1.0,79,0.00,,CLR,0.00,0.00,VWS V14.01,2013-01-05 12:26:00,
2013-01-05 07:30:00,34.1,27.0,30.31,SW,226,0.0,1.0,75,0.00,,CLR,0.00,109.00,VWS V14.01,2013-01-05 12:30:00,
2013-01-05 07:31:00,32.7,26.9,30.29,SSW,211,0.0,1.0,79,0.00,,CLR,0.00,0.00,VWS V14.01,2013-01-05 12:31:00,
2013-01-05 07:36:00,32.7,26.9,30.29,SSW,212,0.0,0.0,79,0.00,,CLR,0.00,7.00,VWS V14.01,2013-01-05 12:36:00,
2013-01-05 07:41:00,32.8,26.7,30.29,SSW,211,0.0,1.0,78,0.00,,CLR,0.00,7.00,VWS V14.01,2013-01-05 12:41:00,
2013-01-05 07:46:00,32.8,27.6,30.29,SW,219,3.0,3.0,81,0.00,,CLR,0.00,12.00,VWS V14.01,2013-01-05 12:46:00,
2013-01-05 07:51:00,32.7,28.1,30.29,SW,227,0.0,4.0,83,0.00,,CLR,0.00,16.00,VWS V14.01,2013-01-05 12:51:00,
2013-01-05 07:56:00,32.7,28.4,30.29,SW,225,0.0,4.0,84,0.00,,CLR,0.00,21.00,VWS V14.01,2013-01-05 12:56:00,
2013-01-05 08:00:00,36.2,27.4,30.30,SW,221,0.0,1.0,70,0.00,,CLR,0.00,206.00,VWS V14.01,2013-01-05 13:00:00,
2013-01-05 08:01:00,32.7,28.1,30.29,SW,224,0.0,4.0,83,0.00,,CLR,0.00,25.00,VWS V14.01,2013-01-05 13:01:00,
2013-01-05 08:06:00,32.8,28.2,30.30,SW,223,0.0,0.0,83,0.00,,CLR,0.00,32.00,VWS V14.01,2013-01-05 13:06:00,
2013-01-05 08:11:00,33.1,27.9,30.30,SW,224,0.0,1.0,81,0.00,,CLR,0.00,40.00,VWS V14.01,2013-01-05 13:11:00,
2013-01-05 08:16:00,33.5,28.9,30.30,SW,226,0.0,1.0,83,0.00,,CLR,0.00,47.00,VWS V14.01,2013-01-05 13:16:00,
2013-01-05 08:21:00,33.8,28.9,30.31,SW,225,0.0,1.0,82,0.00,,CLR,0.00,54.00,VWS V14.01,2013-01-05 13:21:00,
2013-01-05 08:26:00,34.0,28.5,30.31,SW,224,0.0,1.0,80,0.00,,CLR,0.00,62.00,VWS V14.01,2013-01-05 13:26:00,
2013-01-05 08:30:00,38.9,26.2,30.30,SSW,211,0.0,3.0,60,0.00,,CLR,0.00,264.00,VWS V14.01,2013-01-05 13:30:00,
2013-01-05 08:31:00,34.1,27.0,30.31,SW,226,0.0,1.0,75,0.00,,CLR,0.00,130.00,VWS V14.01,2013-01-05 13:31:00,
2013-01-05 08:36:00,34.1,27.3,30.31,SW,226,0.0,1.0,76,0.00,,CLR,0.00,155.00,VWS V14.01,2013-01-05 13:36:00,
2013-01-05 08:41:00,34.1,26.7,30.31,SW,227,0.0,1.0,74,0.00,,CLR,0.00,162.00,VWS V14.01,2013-01-05 13:41:00,
2013-01-05 08:46:00,34.6,27.8,30.31,SW,227,0.0,1.0,76,0.00,,CLR,0.00,148.00,VWS V14.01,2013-01-05 13:46:00,
2013-01-05 08:51:00,35.2,28.4,30.30,SW,227,0.0,1.0,76,0.00,,CLR,0.00,165.00,VWS V14.01,2013-01-05 13:51:00,
2013-01-05 08:56:00,35.8,27.7,30.30,SW,226,0.0,1.0,72,0.00,,CLR,0.00,174.00,VWS V14.01,2013-01-05 13:56:00,
2013-01-05 09:00:00,40.2,26.2,30.30,WSW,255,0.0,4.0,57,0.00,,CLR,0.00,292.00,VWS V14.01,2013-01-05 14:00:00,
2013-01-05 09:01:00,36.0,27.5,30.30,SW,221,0.0,1.0,71,0.00,,CLR,0.00,197.00,VWS V14.01,2013-01-05 14:01:00,
2013-01-05 09:06:00,36.5,27.7,30.30,SW,221,0.0,0.0,70,0.00,,CLR,0.00,278.00,VWS V14.01,2013-01-05 14:06:00,
2013-01-05 09:11:00,37.0,27.8,30.30,SW,218,0.0,1.0,69,0.00,,CLR,0.00,218.00,VWS V14.01,2013-01-05 14:11:00,
2013-01-05 09:16:00,37.5,26.5,30.30,SSW,209,0.0,1.0,64,0.00,,CLR,0.00,193.00,VWS V14.01,2013-01-05 14:16:00,
2013-01-05 09:21:00,37.8,26.4,30.30,SSW,211,0.0,3.0,63,0.00,,CLR,0.00,181.00,VWS V14.01,2013-01-05 14:21:00,
2013-01-05 09:26:00,38.0,26.5,30.30,SSW,211,1.0,3.0,63,0.00,,CLR,0.00,214.00,VWS V14.01,2013-01-05 14:26:00,
2013-01-05 09:30:00,42.1,26.2,30.32,SSW,200,0.0,5.0,53,0.00,,CLR,0.00,448.00,VWS V14.01,2013-01-05 14:30:00,
2013-01-05 09:31:00,38.8,26.1,30.30,SSW,211,0.0,3.0,60,0.00,,CLR,0.00,229.00,VWS V14.01,2013-01-05 14:31:00,
2013-01-05 09:36:00,39.6,26.9,30.30,SSW,211,0.0,0.0,60,0.00,,CLR,0.00,257.00,VWS V14.01,2013-01-05 14:36:00,
2013-01-05 09:41:00,39.8,28.6,30.30,SSW,211,0.0,1.0,64,0.00,,CLR,0.00,322.00,VWS V14.01,2013-01-05 14:41:00,
2013-01-05 09:46:00,40.1,26.5,30.30,SSW,213,0.0,1.0,58,0.00,,CLR,0.00,308.00,VWS V14.01,2013-01-05 14:46:00,
2013-01-05 09:51:00,40.2,27.0,30.30,WNW,296,1.0,4.0,59,0.00,,CLR,0.00,323.00,VWS V14.01,2013-01-05 14:51:00,
2013-01-05 09:56:00,39.9,26.3,30.30,WSW,255,1.0,4.0,58,0.00,,CLR,0.00,276.00,VWS V14.01,2013-01-05 14:56:00,
2013-01-05 10:00:00,44.5,28.9,30.29,South,188,2.0,6.0,54,0.00,,CLR,0.00,373.00,VWS V14.01,2013-01-05 15:00:00,
2013-01-05 10:01:00,40.2,26.2,30.30,WSW,255,0.0,4.0,57,0.00,,CLR,0.00,237.00,VWS V14.01,2013-01-05 15:01:00,
2013-01-05 10:06:00,40.3,25.9,30.30,SW,229,0.0,3.0,56,0.00,,CLR,0.00,271.00,VWS V14.01,2013-01-05 15:06:00,
2013-01-05 10:11:00,40.3,26.3,30.30,West,259,0.0,4.0,57,0.00,,CLR,0.00,248.00,VWS V14.01,2013-01-05 15:11:00,
2013-01-05 10:16:00,40.6,26.1,30.30,West,259,0.0,4.0,56,0.00,,CLR,0.00,288.00,VWS V14.01,2013-01-05 15:16:00,
2013-01-05 10:21:00,40.9,27.7,30.30,WSW,253,0.0,4.0,59,0.00,,CLR,0.00,322.00,VWS V14.01,2013-01-05 15:21:00,
2013-01-05 10:26:00,41.5,27.8,30.30,SSE,156,1.0,5.0,58,0.00,,CLR,0.00,338.00,VWS V14.01,2013-01-05 15:26:00,
2013-01-05 10:30:00,44.8,25.3,30.29,WSW,243,0.0,6.0,46,0.00,,CLR,0.00,459.00,VWS V14.01,2013-01-05 15:30:00,
2013-01-05 10:31:00,41.9,25.6,30.30,SSW,200,0.0,5.0,52,0.00,,CLR,0.00,418.00,VWS V14.01,2013-01-05 15:31:00,
2013-01-05 10:36:00,42.3,25.9,30.32,SSW,200,1.0,3.0,52,0.00,,CLR,0.00,352.00,VWS V14.01,2013-01-05 15:36:00,
2013-01-05 10:41:00,42.6,25.3,30.32,SSW,202,0.0,3.0,50,0.00,,CLR,0.00,318.00,VWS V14.01,2013-01-05 15:41:00,
2013-01-05 10:46:00,42.8,27.8,30.32,WSW,252,0.0,3.0,55,0.00,,CLR,0.00,427.00,VWS V14.01,2013-01-05 15:46:00,
2013-01-05 10:51:00,43.2,28.6,30.30,West,261,0.0,6.0,56,0.00,,CLR,0.00,316.00,VWS V14.01,2013-01-05 15:51:00,
2013-01-05 10:56:00,43.8,26.9,30.30,SSW,199,2.0,6.0,51,0.00,,CLR,0.00,265.00,VWS V14.01,2013-01-05 15:56:00,
2013-01-05 11:00:00,45.1,25.6,30.26,SW,229,0.0,6.0,46,0.00,,CLR,0.00,257.00,VWS V14.01,2013-01-05 16:00:00,
2013-01-05 11:01:00,44.3,29.2,30.30,South,188,2.0,6.0,55,0.00,,CLR,0.00,373.00,VWS V14.01,2013-01-05 16:01:00,
2013-01-05 11:06:00,44.5,27.0,30.29,SSE,148,0.0,5.0,50,0.00,,CLR,0.00,527.00,VWS V14.01,2013-01-05 16:06:00,
2013-01-05 11:11:00,44.8,27.3,30.29,South,173,1.0,5.0,50,0.00,,CLR,0.00,373.00,VWS V14.01,2013-01-05 16:11:00,
2013-01-05 11:16:00,44.5,28.5,30.29,WSW,240,0.0,5.0,53,0.00,,CLR,0.00,446.00,VWS V14.01,2013-01-05 16:16:00,
2013-01-05 11:21:00,44.9,26.4,30.29,SSW,204,0.0,5.0,48,0.00,,CLR,0.00,496.00,VWS V14.01,2013-01-05 16:21:00,
2013-01-05 11:26:00,45.2,25.7,30.29,WSW,254,3.0,6.0,46,0.00,,CLR,0.00,269.00,VWS V14.01,2013-01-05 16:26:00,
2013-01-05 11:30:00,45.7,26.1,30.26,SSE,159,0.0,6.0,46,0.00,,CLR,0.00,264.00,VWS V14.01,2013-01-05 16:30:00,
2013-01-05 11:31:00,44.8,24.8,30.29,WSW,256,0.0,6.0,45,0.00,,CLR,0.00,519.00,VWS V14.01,2013-01-05 16:31:00,
2013-01-05 11:36:00,45.1,25.6,30.29,South,169,0.0,5.0,46,0.00,,CLR,0.00,408.00,VWS V14.01,2013-01-05 16:36:00,
2013-01-05 11:41:00,45.4,24.8,30.29,ESE,115,0.0,6.0,44,0.00,,CLR,0.00,316.00,VWS V14.01,2013-01-05 16:41:00,
2013-01-05 11:46:00,45.2,26.2,30.29,SSE,160,4.0,6.0,47,0.00,,CLR,0.00,408.00,VWS V14.01,2013-01-05 16:46:00,
2013-01-05 11:51:00,45.7,27.6,30.27,SSE,163,1.0,6.0,49,0.00,,CLR,0.00,323.00,VWS V14.01,2013-01-05 16:51:00,
2013-01-05 11:56:00,45.4,25.3,30.27,WSW,251,2.0,6.0,45,0.00,,CLR,0.00,244.00,VWS V14.01,2013-01-05 16:56:00,
2013-01-05 12:00:00,46.2,26.0,30.24,West,261,0.0,15.0,45,0.00,,CLR,0.00,279.00,VWS V14.01,2013-01-05 17:00:00,
2013-01-05 12:01:00,44.9,25.9,30.27,WSW,250,0.0,6.0,47,0.00,,CLR,0.00,320.00,VWS V14.01,2013-01-05 17:01:00,
2013-01-05 12:06:00,45.2,25.1,30.26,SSW,201,0.0,4.0,45,0.00,,CLR,0.00,260.00,VWS V14.01,2013-01-05 17:06:00,
2013-01-05 12:11:00,45.4,26.4,30.26,WSW,250,5.0,6.0,47,0.00,,CLR,0.00,264.00,VWS V14.01,2013-01-05 17:11:00,
2013-01-05 12:16:00,45.2,25.7,30.26,WSW,240,0.0,6.0,46,0.00,,CLR,0.00,206.00,VWS V14.01,2013-01-05 17:16:00,
2013-01-05 12:21:00,45.1,25.0,30.27,West,260,2.0,6.0,45,0.00,,CLR,0.00,218.00,VWS V14.01,2013-01-05 17:21:00,
2013-01-05 12:26:00,45.4,26.9,30.27,WSW,254,0.0,6.0,48,0.00,,CLR,0.00,236.00,VWS V14.01,2013-01-05 17:26:00,
2013-01-05 12:30:00,46.5,25.8,30.22,SW,228,0.0,6.0,44,0.00,,CLR,0.00,195.00,VWS V14.01,2013-01-05 17:30:00,
2013-01-05 12:31:00,45.5,25.4,30.27,SSE,159,0.0,6.0,45,0.00,,CLR,0.00,290.00,VWS V14.01,2013-01-05 17:31:00,
2013-01-05 12:36:00,45.7,25.0,30.26,South,171,0.0,4.0,44,0.00,,CLR,0.00,301.00,VWS V14.01,2013-01-05 17:36:00,
2013-01-05 12:41:00,45.5,24.9,30.26,WSW,254,1.0,6.0,44,0.00,,CLR,0.00,239.00,VWS V14.01,2013-01-05 17:41:00,
2013-01-05 12:46:00,45.7,25.0,30.26,WSW,257,0.0,6.0,44,0.00,,CLR,0.00,223.00,VWS V14.01,2013-01-05 17:46:00,
2013-01-05 12:51:00,45.8,25.7,30.25,SW,224,0.0,6.0,45,0.00,,CLR,0.00,353.00,VWS V14.01,2013-01-05 17:51:00,
2013-01-05 12:56:00,46.1,26.0,30.25,SE,143,2.0,6.0,45,0.00,,CLR,0.00,237.00,VWS V14.01,2013-01-05 17:56:00,
2013-01-05 13:00:00,47.4,24.3,30.20,South,174,0.0,7.0,40,0.00,,CLR,0.00,209.00,VWS V14.01,2013-01-05 18:00:00,
2013-01-05 13:01:00,46.2,27.6,30.25,West,263,0.0,15.0,48,0.00,,CLR,0.00,308.00,VWS V14.01,2013-01-05 18:01:00,
2013-01-05 13:06:00,46.1,24.9,30.24,West,276,3.0,6.0,43,0.00,,CLR,0.00,250.00,VWS V14.01,2013-01-05 18:06:00,
2013-01-05 13:11:00,46.0,24.8,30.24,WSW,256,0.0,6.0,43,0.00,,CLR,0.00,381.00,VWS V14.01,2013-01-05 18:11:00,
2013-01-05 13:16:00,46.4,26.8,30.24,SSW,212,0.0,6.0,46,0.00,,CLR,0.00,468.00,VWS V14.01,2013-01-05 18:16:00,
2013-01-05 13:21:00,46.4,27.8,30.23,West,265,1.0,6.0,48,0.00,,CLR,0.00,408.00,VWS V14.01,2013-01-05 18:21:00,
2013-01-05 13:26:00,46.4,24.6,30.23,WSW,247,0.0,6.0,42,0.00,,CLR,0.00,253.00,VWS V14.01,2013-01-05 18:26:00,
2013-01-05 13:30:00,47.6,25.1,30.20,SSE,157,0.0,10.0,41,0.00,,CLR,0.00,185.00,VWS V14.01,2013-01-05 18:30:00,
2013-01-05 13:31:00,46.5,24.1,30.23,SW,228,0.0,6.0,41,0.00,,CLR,0.00,534.00,VWS V14.01,2013-01-05 18:31:00,
2013-01-05 13:36:00,46.7,26.5,30.22,SW,228,0.0,1.0,45,0.00,,CLR,0.00,294.00,VWS V14.01,2013-01-05 18:36:00,
2013-01-05 13:41:00,46.8,23.8,30.22,SSW,209,0.0,4.0,40,0.00,,CLR,0.00,229.00,VWS V14.01,2013-01-05 18:41:00,
2013-01-05 13:46:00,47.1,25.2,30.22,South,169,1.0,4.0,42,0.00,,CLR,0.00,461.00,VWS V14.01,2013-01-05 18:46:00,
2013-01-05 13:51:00,47.4,24.9,30.21,SSE,167,2.0,4.0,41,0.00,,CLR,0.00,265.00,VWS V14.01,2013-01-05 18:51:00,
2013-01-05 13:56:00,47.4,26.0,30.21,SSE,151,2.0,7.0,43,0.00,,CLR,0.00,220.00,VWS V14.01,2013-01-05 18:56:00,
2013-01-05 14:00:00,47.6,26.2,30.19,SSE,163,0.0,6.0,43,0.00,,CLR,0.00,202.00,VWS V14.01,2013-01-05 19:00:00,
2013-01-05 14:01:00,47.6,26.2,30.21,South,174,0.0,7.0,43,0.00,,CLR,0.00,220.00,VWS V14.01,2013-01-05 19:01:00,
2013-01-05 14:06:00,47.6,26.2,30.20,South,172,0.0,2.0,43,0.00,,CLR,0.00,216.00,VWS V14.01,2013-01-05 19:06:00,
2013-01-05 14:11:00,47.6,28.4,30.20,SW,229,0.0,2.0,47,0.00,,CLR,0.00,221.00,VWS V14.01,2013-01-05 19:11:00,
2013-01-05 14:16:00,47.7,24.0,30.20,SSW,211,0.0,2.0,39,0.00,,CLR,0.00,253.00,VWS V14.01,2013-01-05 19:16:00,
2013-01-05 14:21:00,47.7,26.3,30.20,SSE,149,4.0,6.0,43,0.00,,CLR,0.00,199.00,VWS V14.01,2013-01-05 19:21:00,
2013-01-05 14:26:00,47.4,26.0,30.20,SSE,155,2.0,10.0,43,0.00,,CLR,0.00,246.00,VWS V14.01,2013-01-05 19:26:00,
2013-01-05 14:30:00,47.9,24.1,30.18,SSE,159,1.0,5.0,39,0.00,,CLR,0.00,113.00,VWS V14.01,2013-01-05 19:30:00,
2013-01-05 14:31:00,47.6,25.1,30.20,SSE,159,2.0,10.0,41,0.00,,CLR,0.00,186.00,VWS V14.01,2013-01-05 19:31:00,
2013-01-05 14:36:00,47.7,25.8,30.20,SSE,158,0.0,2.0,42,0.00,,CLR,0.00,216.00,VWS V14.01,2013-01-05 19:36:00,
2013-01-05 14:41:00,47.7,25.2,30.20,SSE,164,0.0,4.0,41,0.00,,CLR,0.00,211.00,VWS V14.01,2013-01-05 19:41:00,
2013-01-05 14:46:00,47.7,24.6,30.20,SE,144,5.0,6.0,40,0.00,,CLR,0.00,193.00,VWS V14.01,2013-01-05 19:46:00,
2013-01-05 14:51:00,47.6,24.5,30.19,SSE,155,2.0,6.0,40,0.00,,CLR,0.00,188.00,VWS V14.01,2013-01-05 19:51:00,
2013-01-05 14:56:00,47.4,23.7,30.19,SSE,160,0.0,6.0,39,0.00,,CLR,0.00,167.00,VWS V14.01,2013-01-05 19:56:00,
2013-01-05 15:00:00,48.0,25.4,30.19,South,171,0.0,4.0,41,0.00,,CLR,0.00,105.00,VWS V14.01,2013-01-05 20:00:00,
2013-01-05 15:01:00,47.6,25.1,30.19,SSE,162,0.0,6.0,41,0.00,,CLR,0.00,185.00,VWS V14.01,2013-01-05 20:01:00,
2013-01-05 15:06:00,47.7,26.9,30.19,South,182,0.0,2.0,44,0.00,,CLR,0.00,234.00,VWS V14.01,2013-01-05 20:06:00,
2013-01-05 15:11:00,47.7,25.8,30.19,SSW,210,2.0,5.0,42,0.00,,CLR,0.00,183.00,VWS V14.01,2013-01-05 20:11:00,
2013-01-05 15:16:00,47.7,26.3,30.19,SSW,210,0.0,5.0,43,0.00,,CLR,0.00,148.00,VWS V14.01,2013-01-05 20:16:00,
2013-01-05 15:21:00,47.9,24.8,30.19,South,178,2.0,5.0,40,0.00,,CLR,0.00,134.00,VWS V14.01,2013-01-05 20:21:00,
2013-01-05 15:26:00,47.9,25.4,30.19,South,178,0.0,5.0,41,0.00,,CLR,0.00,146.00,VWS V14.01,2013-01-05 20:26:00,
2013-01-05 15:30:00,48.2,27.3,30.19,West,263,2.0,4.0,44,0.00,,CLR,0.00,74.00,VWS V14.01,2013-01-05 20:30:00,
2013-01-05 15:31:00,47.9,28.7,30.19,SSE,159,3.0,5.0,47,0.00,,CLR,0.00,116.00,VWS V14.01,2013-01-05 20:31:00,
2013-01-05 15:36:00,47.9,25.4,30.18,SSE,160,0.0,4.0,41,0.00,,CLR,0.00,123.00,VWS V14.01,2013-01-05 20:36:00,
2013-01-05 15:41:00,47.9,26.5,30.18,SSE,156,0.0,4.0,43,0.00,,CLR,0.00,134.00,VWS V14.01,2013-01-05 20:41:00,
2013-01-05 15:46:00,47.9,25.9,30.18,SSE,167,0.0,4.0,42,0.00,,CLR,0.00,102.00,VWS V14.01,2013-01-05 20:46:00,
2013-01-05 15:51:00,48.0,24.9,30.18,SSE,167,2.0,4.0,40,0.00,,CLR,0.00,90.00,VWS V14.01,2013-01-05 20:51:00,
2013-01-05 15:56:00,48.0,24.9,30.18,South,169,0.0,4.0,40,0.00,,CLR,0.00,97.00,VWS V14.01,2013-01-05 20:56:00,
2013-01-05 16:00:00,47.7,28.0,30.19,West,265,1.0,5.0,46,0.00,,CLR,0.00,32.00,VWS V14.01,2013-01-05 21:00:00,
2013-01-05 16:01:00,48.0,25.4,30.18,South,171,0.0,4.0,41,0.00,,CLR,0.00,107.00,VWS V14.01,2013-01-05 21:01:00,
2013-01-05 16:06:00,48.0,26.6,30.19,South,171,1.0,1.0,43,0.00,,CLR,0.00,107.00,VWS V14.01,2013-01-05 21:06:00,
2013-01-05 16:11:00,48.0,25.4,30.19,South,171,0.0,3.0,41,0.00,,CLR,0.00,109.00,VWS V14.01,2013-01-05 21:11:00,
2013-01-05 16:16:00,48.0,26.6,30.19,West,260,0.0,3.0,43,0.00,,CLR,0.00,111.00,VWS V14.01,2013-01-05 21:16:00,
2013-01-05 16:21:00,48.0,26.6,30.19,WSW,242,0.0,4.0,43,0.00,,CLR,0.00,98.00,VWS V14.01,2013-01-05 21:21:00,
2013-01-05 16:26:00,48.0,26.6,30.19,WSW,244,0.0,4.0,43,0.00,,CLR,0.00,98.00,VWS V14.01,2013-01-05 21:26:00,
2013-01-05 16:30:00,47.1,27.4,30.20,WSW,242,2.0,3.0,46,0.00,,CLR,0.00,0.00,VWS V14.01,2013-01-05 21:30:00,
2013-01-05 16:31:00,48.2,26.8,30.19,WSW,244,0.0,4.0,43,0.00,,CLR,0.00,79.00,VWS V14.01,2013-01-05 21:31:00,
2013-01-05 16:36:00,48.0,27.7,30.19,WSW,257,0.0,4.0,45,0.00,,CLR,0.00,69.00,VWS V14.01,2013-01-05 21:36:00,
2013-01-05 16:41:00,47.9,25.4,30.19,WSW,257,0.0,5.0,41,0.00,,CLR,0.00,62.00,VWS V14.01,2013-01-05 21:41:00,
2013-01-05 16:46:00,47.9,25.9,30.19,WSW,258,0.0,5.0,42,0.00,,CLR,0.00,51.00,VWS V14.01,2013-01-05 21:46:00,
2013-01-05 16:51:00,47.9,26.5,30.20,West,271,2.0,5.0,43,0.00,,CLR,0.00,47.00,VWS V14.01,2013-01-05 21:51:00,
2013-01-05 16:56:00,47.9,25.9,30.20,West,265,0.0,5.0,42,0.00,,CLR,0.00,37.00,VWS V14.01,2013-01-05 21:56:00,
2013-01-05 17:00:00,47.1,28.9,30.19,SW,229,0.0,3.0,49,0.00,,CLR,0.00,0.00,VWS V14.01,2013-01-05 22:00:00,
2013-01-05 17:01:00,47.7,26.3,30.20,West,265,0.0,5.0,43,0.00,,CLR,0.00,33.00,VWS V14.01,2013-01-05 22:01:00,
2013-01-05 17:06:00,47.7,27.4,30.19,West,265,0.0,3.0,45,0.00,,CLR,0.00,26.00,VWS V14.01,2013-01-05 22:06:00,
2013-01-05 17:11:00,47.7,28.0,30.19,West,263,0.0,3.0,46,0.00,,CLR,0.00,16.00,VWS V14.01,2013-01-05 22:11:00,
2013-01-05 17:15:00,47.6,28.9,30.19,West,262,0.0,3.0,48,0.00,,CLR,0.00,9.00,VWS V14.01,2013-01-05 22:15:00,
2013-01-05 17:20:00,47.4,27.1,30.19,West,263,0.0,3.0,45,0.00,,CLR,0.00,7.00,VWS V14.01,2013-01-05 22:20:00,
2013-01-05 17:25:00,47.3,28.6,30.19,West,262,0.0,3.0,48,0.00,,CLR,0.00,0.00,VWS V14.01,2013-01-05 22:25:00,
2013-01-05 17:30:00,47.3,27.0,30.19,WSW,242,3.0,3.0,45,0.00,,CLR,0.00,0.00,VWS V14.01,2013-01-05 22:30:00,
2013-01-05 17:35:00,47.1,28.4,30.20,WSW,242,0.0,3.0,48,0.00,,CLR,0.00,0.00,VWS V14.01,2013-01-05 22:35:00,
2013-01-05 17:40:00,47.0,26.8,30.20,SW,229,0.0,3.0,45,0.00,,CLR,0.00,0.00,VWS V14.01,2013-01-05 22:40:00,
2013-01-05 17:45:00,47.0,27.8,30.20,SW,229,0.0,3.0,47,0.00,,CLR,0.00,0.00,VWS V14.01,2013-01-05 22:45:00,
2013-01-05 17:50:00,47.0,27.3,30.21,SW,229,0.0,3.0,46,0.00,,CLR,0.00,0.00,VWS V14.01,2013-01-05 22:50:00,
2013-01-05 17:55:00,47.0,26.8,30.21,SW,229,0.0,3.0,45,0.00,,CLR,0.00,0.00,VWS V14.01,2013-01-05 22:55:00,
2013-01-05 18:00:00,47.1,27.9,30.21,SW,229,0.0,3.0,47,0.00,,CLR,0.00,0.00,VWS V14.01,2013-01-05 23:00:00,
2013-01-05 18:05:00,47.1,28.4,30.19,SW,229,0.0,0.0,48,0.00,,BKN110,0.00,0.00,VWS V14.01,2013-01-05 23:05:00,
2013-01-05 18:10:00,47.3,28.1,30.19,SW,229,0.0,1.0,47,0.00,,BKN110,0.00,0.00,VWS V14.01,2013-01-05 23:10:00,
2013-01-05 18:15:00,47.1,27.9,30.19,SW,229,0.0,1.0,47,0.00,,BKN110,0.00,0.00,VWS V14.01,2013-01-05 23:15:00,
2013-01-05 18:20:00,47.1,28.4,30.19,SW,229,0.0,1.0,48,0.00,,BKN110,0.00,0.00,VWS V14.01,2013-01-05 23:20:00,
2013-01-05 18:25:00,47.1,28.4,30.19,SW,229,0.0,1.0,48,0.00,,BKN110,0.00,0.00,VWS V14.01,2013-01-05 23:25:00,
2013-01-05 18:30:00,47.3,30.1,30.19,SW,229,0.0,1.0,51,0.00,,BKN110,0.00,0.00,VWS V14.01,2013-01-05 23:30:00,
2013-01-05 18:35:00,47.3,29.6,30.20,SW,229,0.0,0.0,50,0.00,,BKN110,0.00,0.00,VWS V14.01,2013-01-05 23:35:00,
2013-01-05 18:40:00,47.4,29.2,30.20,SW,229,0.0,2.0,49,0.00,,BKN110,0.00,0.00,VWS V14.01,2013-01-05 23:40:00,
2013-01-05 18:45:00,47.3,30.6,30.20,SW,229,0.0,2.0,52,0.00,,BKN110,0.00,0.00,VWS V14.01,2013-01-05 23:45:00,
2013-01-05 18:50:00,47.3,30.1,30.21,SW,229,0.0,3.0,51,0.00,,BKN110,0.00,0.00,VWS V14.01,2013-01-05 23:50:00,
2013-01-05 18:55:00,47.1,28.9,30.21,SW,229,0.0,3.0,49,0.00,,BKN110,0.00,0.00,VWS V14.01,2013-01-05 23:55:00,
2013-01-05 19:00:00,47.1,29.4,30.21,SW,232,0.0,3.0,50,0.00,,BKN110,0.00,0.00,VWS V14.01,2013-01-06 00:00:00,
2013-01-05 19:05:00,47.0,30.3,30.21,SW,232,0.0,0.0,52,0.00,,OVC120,0.00,0.00,VWS V14.01,2013-01-06 00:05:00,
2013-01-05 19:10:00,47.0,29.3,30.21,SW,232,0.0,0.0,50,0.00,,OVC120,0.00,0.00,VWS V14.01,2013-01-06 00:10:00,
2013-01-05 19:15:00,47.0,31.2,30.21,SW,232,0.0,2.0,54,0.00,,OVC120,0.00,0.00,VWS V14.01,2013-01-06 00:15:00,
2013-01-05 19:20:00,46.8,29.6,30.21,SW,232,0.0,2.0,51,0.00,,OVC120,0.00,0.00,VWS V14.01,2013-01-06 00:20:00,
2013-01-05 19:25:00,46.7,29.1,30.21,SW,232,0.0,2.0,50,0.00,,OVC120,0.00,0.00,VWS V14.01,2013-01-06 00:25:00,
2013-01-05 19:30:00,46.5,28.9,30.21,SW,232,0.0,2.0,50,0.00,,OVC120,0.00,0.00,VWS V14.01,2013-01-06 00:30:00,
2013-01-05 19:35:00,46.5,30.3,30.21,SW,232,0.0,0.0,53,0.00,,OVC120,0.00,0.00,VWS V14.01,2013-01-06 00:35:00,
2013-01-05 19:40:00,46.5,28.4,30.21,SW,232,0.0,2.0,49,0.00,,OVC120,0.00,0.00,VWS V14.01,2013-01-06 00:40:00,
2013-01-05 19:45:00,46.5,28.4,30.21,SW,232,0.0,2.0,49,0.00,,OVC120,0.00,0.00,VWS V14.01,2013-01-06 00:45:00,
2013-01-05 19:50:00,46.4,28.3,30.22,SW,232,1.0,2.0,49,0.00,,OVC120,0.00,0.00,VWS V14.01,2013-01-06 00:50:00,
2013-01-05 19:55:00,46.4,30.2,30.22,SW,232,0.0,2.0,53,0.00,,OVC120,0.00,0.00,VWS V14.01,2013-01-06 00:55:00,
2013-01-05 20:00:00,46.4,29.3,30.22,SW,232,0.0,2.0,51,0.00,,OVC120,0.00,0.00,VWS V14.01,2013-01-06 01:00:00,
2013-01-05 20:05:00,46.2,29.1,30.22,WSW,254,0.0,2.0,51,0.00,,OVC110,0.00,0.00,VWS V14.01,2013-01-06 01:05:00,
2013-01-05 20:10:00,46.2,29.6,30.22,WSW,254,0.0,2.0,52,0.00,,OVC110,0.00,0.00,VWS V14.01,2013-01-06 01:10:00,
2013-01-05 20:15:00,46.2,30.5,30.22,WSW,256,0.0,4.0,54,0.00,,OVC110,0.00,0.00,VWS V14.01,2013-01-06 01:15:00,
2013-01-05 20:20:00,46.2,30.9,30.24,West,259,3.0,4.0,55,0.00,,OVC110,0.00,0.00,VWS V14.01,2013-01-06 01:20:00,
2013-01-05 20:25:00,46.2,29.1,30.24,West,262,0.0,4.0,51,0.00,,OVC110,0.00,0.00,VWS V14.01,2013-01-06 01:25:00,
2013-01-05 20:30:00,46.2,29.6,30.24,West,262,0.0,4.0,52,0.00,,OVC110,0.00,0.00,VWS V14.01,2013-01-06 01:30:00,
2013-01-05 20:35:00,46.2,28.6,30.24,West,259,0.0,3.0,50,0.00,,OVC110,0.00,0.00,VWS V14.01,2013-01-06 01:35:00,
2013-01-05 20:40:00,46.2,30.0,30.24,WSW,257,0.0,3.0,53,0.00,,OVC110,0.00,0.00,VWS V14.01,2013-01-06 01:40:00,
2013-01-05 20:45:00,46.2,28.1,30.24,SW,222,0.0,3.0,49,0.00,,OVC110,0.00,0.00,VWS V14.01,2013-01-06 01:45:00,
2013-01-05 20:50:00,46.2,28.6,30.24,SW,215,0.0,4.0,50,0.00,,OVC110,0.00,0.00,VWS V14.01,2013-01-06 01:50:00,
2013-01-05 20:55:00,46.2,29.1,30.24,SW,217,0.0,4.0,51,0.00,,OVC110,0.00,0.00,VWS V14.01,2013-01-06 01:55:00,
2013-01-05 21:00:00,46.1,29.0,30.24,SSW,213,0.0,4.0,51,0.00,,OVC110,0.00,0.00,VWS V14.01,2013-01-06 02:00:00,
2013-01-05 21:05:00,46.0,28.9,30.22,WSW,243,0.0,2.0,51,0.00,,OVC090,0.00,0.00,VWS V14.01,2013-01-06 02:05:00,
2013-01-05 21:10:00,46.1,29.0,30.22,WSW,244,1.0,3.0,51,0.00,,OVC090,0.00,0.00,VWS V14.01,2013-01-06 02:10:00,
2013-01-05 21:15:00,46.1,29.9,30.22,West,267,3.0,4.0,53,0.00,,OVC090,0.00,0.00,VWS V14.01,2013-01-06 02:15:00,
2013-01-05 21:20:00,46.2,30.9,30.21,West,267,0.0,4.0,55,0.00,,OVC090,0.00,0.00,VWS V14.01,2013-01-06 02:20:00,
2013-01-05 21:25:00,46.0,30.3,30.21,West,267,0.0,4.0,54,0.00,,OVC090,0.00,0.00,VWS V14.01,2013-01-06 02:25:00,
2013-01-05 21:30:00,45.8,31.0,30.21,West,267,0.0,4.0,56,0.00,,OVC090,0.00,0.00,VWS V14.01,2013-01-06 02:30:00,
2013-01-05 21:35:00,45.7,32.2,30.20,West,267,0.0,0.0,59,0.00,,OVC090,0.00,0.00,VWS V14.01,2013-01-06 02:35:00,
2013-01-05 21:40:00,45.5,32.8,30.20,West,267,0.0,0.0,61,0.00,,OVC090,0.00,0.00,VWS V14.01,2013-01-06 02:40:00,
2013-01-05 21:45:00,45.2,31.3,30.20,West,267,0.0,2.0,58,0.00,,OVC090,0.00,0.00,VWS V14.01,2013-01-06 02:45:00,
2013-01-05 21:50:00,45.2,31.3,30.19,West,263,3.0,4.0,58,0.00,,OVC090,0.00,0.00,VWS V14.01,2013-01-06 02:50:00,
2013-01-05 21:55:00,45.1,32.5,30.19,West,263,0.0,4.0,61,0.00,,OVC090,0.00,0.00,VWS V14.01,2013-01-06 02:55:00,
2013-01-05 22:00:00,44.9,33.1,30.19,West,263,0.0,4.0,63,0.00,,OVC090,0.00,0.00,VWS V14.01,2013-01-06 03:00:00,
2013-01-05 22:05:00,44.8,31.4,30.19,West,265,0.0,4.0,59,0.00,,-RA,0.00,0.00,VWS V14.01,2013-01-06 03:05:00,
2013-01-05 22:10:00,44.8,31.4,30.19,West,265,0.0,4.0,59,0.00,,-RA,0.00,0.00,VWS V14.01,2013-01-06 03:10:00,
2013-01-05 22:15:00,44.8,33.4,30.19,West,265,0.0,4.0,64,0.00,,-RA,0.00,0.00,VWS V14.01,2013-01-06 03:15:00,
2013-01-05 22:20:00,44.6,32.8,30.18,West,265,0.0,4.0,63,0.00,,-RA,0.00,0.00,VWS V14.01,2013-01-06 03:20:00,
2013-01-05 22:25:00,44.6,34.7,30.18,West,265,0.0,4.0,68,0.00,,-RA,0.00,0.00,VWS V14.01,2013-01-06 03:25:00,
2013-01-05 22:30:00,44.5,34.6,30.18,West,265,0.0,4.0,68,0.00,,-RA,0.00,0.00,VWS V14.01,2013-01-06 03:30:00,
2013-01-05 22:35:00,44.3,34.4,30.17,West,265,0.0,0.0,68,0.00,,-RA,0.00,0.00,VWS V14.01,2013-01-06 03:35:00,
2013-01-05 22:40:00,44.2,33.2,30.17,West,265,0.0,2.0,65,0.00,,-RA,0.00,0.00,VWS V14.01,2013-01-06 03:40:00,
2013-01-05 22:45:00,44.2,34.0,30.17,West,265,0.0,2.0,67,0.00,,-RA,0.00,0.00,VWS V14.01,2013-01-06 03:45:00,
2013-01-05 22:50:00,43.9,33.3,30.17,West,265,0.0,2.0,66,0.00,,-RA,0.00,0.00,VWS V14.01,2013-01-06 03:50:00,
2013-01-05 22:55:00,43.9,34.8,30.17,West,265,0.0,2.0,70,0.00,,-RA,0.00,0.00,VWS V14.01,2013-01-06 03:55:00,
2013-01-05 23:00:00,43.8,33.9,30.17,West,265,0.0,2.0,68,0.00,,-RA,0.00,0.00,VWS V14.01,2013-01-06 04:00:00,
2013-01-05 23:05:00,43.8,33.6,30.16,West,262,0.0,4.0,67,0.00,,-RA,0.00,0.00,VWS V14.01,2013-01-06 04:05:00,
2013-01-05 23:10:00,43.5,33.7,30.16,West,260,0.0,4.0,68,0.00,,-RA,0.00,0.00,VWS V14.01,2013-01-06 04:10:00,
2013-01-05 23:15:00,43.5,34.0,30.16,West,260,0.0,4.0,69,0.00,,-RA,0.00,0.00,VWS V14.01,2013-01-06 04:15:00,
2013-01-05 23:20:00,43.3,34.2,30.16,West,260,0.0,4.0,70,0.00,,-RA,0.00,0.00,VWS V14.01,2013-01-06 04:20:00,
2013-01-05 23:25:00,43.3,33.8,30.16,West,267,0.0,4.0,69,0.00,,-RA,0.00,0.00,VWS V14.01,2013-01-06 04:25:00,
2013-01-05 23:30:00,43.3,34.9,30.16,West,267,0.0,4.0,72,0.00,,-RA,0.00,0.00,VWS V14.01,2013-01-06 04:30:00,
2013-01-05 23:35:00,43.5,34.7,30.15,West,262,0.0,0.0,71,0.00,,-RA,0.00,0.00,VWS V14.01,2013-01-06 04:35:00,
2013-01-05 23:40:00,43.5,34.7,30.15,West,262,0.0,1.0,71,0.00,,-RA,0.00,0.00,VWS V14.01,2013-01-06 04:40:00,
2013-01-05 23:45:00,43.3,34.5,30.15,West,262,1.0,3.0,71,0.00,,-RA,0.00,0.00,VWS V14.01,2013-01-06 04:45:00,
2013-01-05 23:50:00,43.2,34.8,30.15,WSW,257,0.0,4.0,72,0.00,,-RA,0.00,0.00,VWS V14.01,2013-01-06 04:50:00,
2013-01-05 23:55:00,43.2,36.2,30.15,WSW,257,0.0,4.0,76,0.00,,-RA,0.00,0.00,VWS V14.01,2013-01-06 04:55:00,